Time;durP1;ratioP1;P1;durP2;ratioP2;P2;SDS_P1;SDS_P2;PMS_P1;PMS_P2;Temp;Humidity;BMP_temperature;BMP_pressure;BME280_temperature;BME280_humidity;BME280_pressure;Samples;Min_cycle;Max_cycle;Signal;HPM_P1;HPM_P2
2021/04/22 00:04:00;;;;;;;19.50;3.50;;;6.90;70.20;;;;;;5930700;40;20062;-69
2021/04/22 00:08:05;;;;;;;15.65;3.05;;;6.90;70.20;;;;;;5923456;40;20044;-69
2021/04/22 00:12:13;;;;;;;18.10;2.83;;;6.90;70.00;;;;;;5933381;40;20054;-70
2021/04/22 00:16:17;;;;;;;22.08;3.08;;;6.90;69.60;;;;;;5919285;40;20048;-70
2021/04/22 00:20:22;;;;;;;24.33;3.35;;;6.90;69.00;;;;;;5923654;40;20078;-70
2021/04/22 00:24:28;;;;;;;22.35;4.00;;;6.90;69.50;;;;;;5933886;40;20060;-69
2021/04/22 00:28:37;;;;;;;26.63;3.97;;;6.90;69.30;;;;;;5929941;40;20472;-69
2021/04/22 00:32:42;;;;;;;19.42;3.90;;;6.90;68.90;;;;;;5929721;40;20412;-69
2021/04/22 00:36:50;;;;;;;20.48;3.53;;;6.90;69.30;;;;;;5920740;40;20040;-70
2021/04/22 00:40:57;;;;;;;14.90;2.38;;;6.90;68.90;;;;;;5921455;40;20060;-69
2021/04/22 00:45:04;;;;;;;13.75;2.63;;;6.90;69.20;;;;;;5921271;40;20048;-69
2021/04/22 00:49:11;;;;;;;19.20;2.83;;;6.80;70.70;;;;;;5929088;40;20058;-69
2021/04/22 00:53:18;;;;;;;11.27;1.95;;;6.80;69.60;;;;;;5920241;40;20473;-69
2021/04/22 00:57:23;;;;;;;16.92;2.75;;;6.80;69.20;;;;;;5927760;40;20092;-69
2021/04/22 01:01:27;;;;;;;15.32;2.80;;;6.70;69.40;;;;;;5929928;40;20122;-68
2021/04/22 01:05:48;;;;;;;10.60;2.03;;;6.60;69.10;;;;;;5929661;40;20049;-68
2021/04/22 01:09:52;;;;;;;21.58;2.97;;;6.60;69.50;;;;;;5927980;40;20064;-68
2021/04/22 01:13:56;;;;;;;16.48;2.60;;;6.50;70.70;;;;;;5928957;40;20056;-68
2021/04/22 01:18:03;;;;;;;17.58;3.22;;;6.40;71.10;;;;;;5930148;40;20134;-68
2021/04/22 01:22:10;;;;;;;17.60;2.63;;;6.40;70.60;;;;;;5914412;40;20064;-68
2021/04/22 01:26:20;;;;;;;32.85;3.80;;;6.30;71.50;;;;;;5928057;40;20052;-69
2021/04/22 01:30:35;;;;;;;10.75;2.30;;;6.30;71.90;;;;;;5920879;40;20048;-69
2021/04/22 01:34:43;;;;;;;20.35;3.13;;;6.30;71.90;;;;;;5916918;40;20085;-69
2021/04/22 01:38:45;;;;;;;20.10;3.85;;;6.20;72.50;;;;;;5933588;40;20576;-69
2021/04/22 01:42:55;;;;;;;17.30;2.92;;;6.20;71.90;;;;;;5928728;40;20122;-69
2021/04/22 01:46:59;;;;;;;17.80;3.83;;;6.20;71.40;;;;;;5922150;40;20041;-69
2021/04/22 01:51:04;;;;;;;19.08;2.75;;;6.10;70.60;;;;;;5925991;40;20052;-69
2021/04/22 01:55:13;;;;;;;23.02;3.47;;;6.10;71.90;;;;;;5924353;40;20097;-70
2021/04/22 01:59:14;;;;;;;19.15;3.40;;;6.10;72.30;;;;;;5927911;40;20052;-69
2021/04/22 02:03:21;;;;;;;17.27;2.67;;;6.00;71.20;;;;;;5929764;40;20072;-69
2021/04/22 02:07:26;;;;;;;13.57;3.20;;;6.00;71.20;;;;;;5928446;40;20117;-69
2021/04/22 02:11:32;;;;;;;23.70;2.90;;;6.00;71.10;;;;;;5930451;40;20112;-72
2021/04/22 02:15:39;;;;;;;15.80;3.00;;;6.00;71.40;;;;;;5928812;40;20061;-69
2021/04/22 02:19:46;;;;;;;17.13;2.92;;;6.00;74.00;;;;;;5928822;40;20069;-68
2021/04/22 02:23:53;;;;;;;13.95;2.90;;;6.00;72.30;;;;;;5917607;40;20044;-68
2021/04/22 02:27:58;;;;;;;16.83;2.85;;;6.10;72.60;;;;;;5926213;40;20032;-68
2021/04/22 02:32:04;;;;;;;14.75;2.47;;;6.10;72.50;;;;;;5929294;40;20647;-68
2021/04/22 02:36:13;;;;;;;21.83;3.28;;;6.00;75.20;;;;;;5928379;40;20076;-69
2021/04/22 02:40:23;;;;;;;22.25;4.25;;;6.00;72.90;;;;;;5928681;40;20090;-68
2021/04/22 02:44:29;;;;;;;25.90;4.47;;;6.00;73.50;;;;;;5929753;40;20040;-68
2021/04/22 02:48:31;;;;;;;13.98;3.45;;;5.90;73.80;;;;;;5913285;40;20117;-69
2021/04/22 02:52:38;;;;;;;18.88;2.97;;;5.90;72.70;;;;;;5928283;40;20064;-68
2021/04/22 02:56:46;;;;;;;25.27;3.15;;;5.90;74.70;;;;;;5922196;40;20270;-69
2021/04/22 03:00:50;;;;;;;21.45;2.75;;;5.90;75.40;;;;;;5924649;40;20079;-69
2021/04/22 03:04:56;;;;;;;21.73;3.00;;;5.80;73.90;;;;;;5918541;40;20150;-69
2021/04/22 03:09:03;;;;;;;22.13;3.58;;;5.80;75.20;;;;;;5918101;40;20285;-69
2021/04/22 03:13:11;;;;;;;20.45;2.45;;;5.80;75.30;;;;;;5928314;40;20428;-69
2021/04/22 03:17:17;;;;;;;23.83;4.00;;;5.80;73.50;;;;;;5923914;40;20056;-69
2021/04/22 03:21:21;;;;;;;16.27;2.35;;;5.80;74.60;;;;;;5928158;40;20097;-69
2021/04/22 03:25:30;;;;;;;20.88;2.72;;;5.70;76.50;;;;;;5916077;40;20053;-69
2021/04/22 03:29:34;;;;;;;18.15;3.15;;;5.70;74.50;;;;;;5929575;40;20060;-69
2021/04/22 03:33:39;;;;;;;20.40;3.90;;;6.20;74.10;;;;;;5929513;40;20108;-69
2021/04/22 03:37:43;;;;;;;17.95;3.00;;;5.70;74.10;;;;;;5930154;40;20064;-69
2021/04/22 03:41:51;;;;;;;28.50;3.72;;;5.70;74.70;;;;;;5930118;40;20060;-70
2021/04/22 03:45:58;;;;;;;20.00;3.60;;;5.70;73.60;;;;;;5928241;40;20045;-70
2021/04/22 03:50:04;;;;;;;20.55;3.78;;;5.70;75.10;;;;;;5929380;40;20082;-70
2021/04/22 03:54:09;;;;;;;16.00;3.17;;;5.70;74.70;;;;;;5931589;40;20049;-70
2021/04/22 03:58:13;;;;;;;20.95;3.30;;;5.60;74.10;;;;;;5927198;40;20079;-71
2021/04/22 04:02:20;;;;;;;16.27;2.90;;;5.60;74.90;;;;;;5927983;40;20130;-69
2021/04/22 04:06:24;;;;;;;27.90;3.72;;;5.60;75.90;;;;;;5927837;40;20067;-70
2021/04/22 04:10:28;;;;;;;23.88;4.30;;;5.50;73.80;;;;;;5932154;40;20052;-69
2021/04/22 04:14:35;;;;;;;25.00;2.85;;;5.50;74.10;;;;;;5918335;40;20048;-70
2021/04/22 04:18:40;;;;;;;23.05;3.85;;;5.40;74.60;;;;;;5920820;40;20195;-69
2021/04/22 04:22:47;;;;;;;20.15;3.97;;;5.40;73.60;;;;;;5920650;40;20089;-69
2021/04/22 04:26:56;;;;;;;24.33;3.70;;;5.40;74.40;;;;;;5927038;40;20454;-69
2021/04/22 04:31:01;;;;;;;25.63;4.50;;;5.40;73.70;;;;;;5924990;40;20452;-69
2021/04/22 04:35:10;;;;;;;21.75;3.67;;;5.40;74.20;;;;;;5924750;40;20040;-69
2021/04/22 04:39:15;;;;;;;21.92;3.95;;;5.40;74.80;;;;;;5928541;40;20522;-69
2021/04/22 04:43:19;;;;;;;25.40;4.05;;;5.40;74.00;;;;;;5927970;40;20053;-69
2021/04/22 04:47:26;;;;;;;25.13;4.30;;;5.40;73.90;;;;;;5919943;40;20071;-68
2021/04/22 04:51:35;;;;;;;22.58;4.15;;;5.40;74.00;;;;;;5927620;40;20053;-69
2021/04/22 04:55:39;;;;;;;25.00;4.30;;;5.40;76.10;;;;;;5932372;40;20075;-69
2021/04/22 04:59:45;;;;;;;26.15;3.85;;;5.40;75.20;;;;;;5927246;40;20056;-69
2021/04/22 05:03:52;;;;;;;23.70;4.60;;;5.50;74.20;;;;;;5918355;40;20408;-65
2021/04/22 05:07:57;;;;;;;21.38;2.85;;;5.60;75.80;;;;;;5916106;40;20514;-64
2021/04/22 05:12:04;;;;;;;23.55;4.07;;;5.60;76.90;;;;;;5927298;40;20092;-66
2021/04/22 05:16:08;;;;;;;19.67;3.88;;;5.70;75.20;;;;;;5918213;40;20060;-65
2021/04/22 05:20:12;;;;;;;21.40;4.10;;;5.70;75.60;;;;;;5921119;40;20183;-64
2021/04/22 05:24:20;;;;;;;25.23;4.55;;;5.80;75.50;;;;;;5926243;40;20037;-65
2021/04/22 05:28:24;;;;;;;24.67;5.03;;;5.90;75.10;;;;;;5925288;40;20080;-65
2021/04/22 05:32:29;;;;;;;22.70;4.60;;;6.00;74.40;;;;;;5922591;40;20320;-66
2021/04/22 05:36:33;;;;;;;23.90;4.78;;;6.10;74.90;;;;;;5921732;40;20108;-66
2021/04/22 05:40:42;;;;;;;30.00;4.35;;;6.20;76.30;;;;;;5927116;40;20056;-66
2021/04/22 05:44:46;;;;;;;29.02;4.40;;;6.40;75.90;;;;;;5926010;40;20052;-67
2021/04/22 05:48:54;;;;;;;33.80;5.47;;;6.40;76.50;;;;;;5920801;40;20045;-65
2021/04/22 05:53:03;;;;;;;24.13;4.82;;;6.60;75.20;;;;;;5924059;40;20105;-65
2021/04/22 05:57:08;;;;;;;25.08;4.05;;;6.70;75.20;;;;;;5918149;40;20099;-65
2021/04/22 06:01:12;;;;;;;25.05;4.90;;;6.90;75.30;;;;;;5917944;40;20088;-65
2021/04/22 06:05:21;;;;;;;26.42;4.40;;;7.20;75.00;;;;;;5925218;40;20045;-67
2021/04/22 06:09:26;;;;;;;19.80;3.97;;;7.30;74.30;;;;;;5919170;40;20150;-64
2021/04/22 06:13:30;;;;;;;24.25;3.97;;;7.50;74.60;;;;;;5916673;40;20059;-65
2021/04/22 06:17:37;;;;;;;25.85;4.45;;;7.60;73.40;;;;;;5923471;40;20041;-65
2021/04/22 06:21:44;;;;;;;20.55;3.58;;;7.70;74.80;;;;;;5920994;40;20060;-67
2021/04/22 06:25:50;;;;;;;28.30;5.18;;;8.00;73.80;;;;;;5925100;40;20349;-64
2021/04/22 06:29:54;;;;;;;23.88;3.95;;;8.10;73.40;;;;;;5917862;40;20459;-66
2021/04/22 06:34:01;;;;;;;22.55;4.10;;;8.20;72.20;;;;;;5921968;40;20126;-66
2021/04/22 06:38:05;;;;;;;19.63;3.50;;;8.20;72.30;;;;;;5922748;40;20060;-65
2021/04/22 06:42:12;;;;;;;22.27;3.97;;;8.20;72.40;;;;;;5920726;40;20057;-66
2021/04/22 06:46:19;;;;;;;15.55;3.22;;;8.30;72.80;;;;;;5925432;40;20044;-65
2021/04/22 06:50:26;;;;;;;14.25;4.40;;;8.50;72.30;;;;;;5921312;40;20347;-66
2021/04/22 06:54:31;;;;;;;14.52;3.45;;;8.60;71.90;;;;;;5922737;40;20145;-66
2021/04/22 06:58:40;;;;;;;24.67;4.25;;;8.90;71.50;;;;;;5924848;40;20376;-66
2021/04/22 07:02:50;;;;;;;17.70;4.22;;;9.10;71.10;;;;;;5924152;40;20049;-65
2021/04/22 07:06:56;;;;;;;25.05;3.65;;;9.10;71.00;;;;;;5912919;40;20071;-65
2021/04/22 07:11:00;;;;;;;19.88;4.03;;;9.00;71.30;;;;;;5925387;40;20045;-66
2021/04/22 07:15:06;;;;;;;21.90;4.10;;;9.10;71.00;;;;;;5912885;40;20063;-66
2021/04/22 07:19:13;;;;;;;15.27;3.80;;;9.00;71.40;;;;;;5924483;40;20095;-67
2021/04/22 07:23:19;;;;;;;14.27;4.00;;;9.00;71.20;;;;;;5922380;40;20060;-66
2021/04/22 07:27:24;;;;;;;26.48;4.68;;;9.00;71.00;;;;;;5920043;40;20060;-65
2021/04/22 07:31:30;;;;;;;22.63;3.97;;;9.00;71.20;;;;;;5924851;40;20448;-65
2021/04/22 07:35:38;;;;;;;13.30;3.47;;;9.00;71.60;;;;;;5916764;40;20142;-66
2021/04/22 07:39:43;;;;;;;15.05;3.65;;;9.00;71.30;;;;;;5912517;40;20084;-64
2021/04/22 07:43:47;;;;;;;14.48;4.07;;;9.00;71.30;;;;;;5920974;40;20077;-66
2021/04/22 07:47:51;;;;;;;20.17;4.07;;;9.10;71.30;;;;;;5911654;40;20427;-66
2021/04/22 07:51:57;;;;;;;17.05;3.88;;;9.20;70.70;;;;;;5924837;40;20496;-66
2021/04/22 07:56:04;;;;;;;18.92;3.70;;;9.30;70.70;;;;;;5917515;40;20273;-66
2021/04/22 08:00:14;;;;;;;14.38;3.00;;;9.30;70.40;;;;;;5923926;40;20344;-66
2021/04/22 08:04:20;;;;;;;14.65;3.58;;;9.30;70.20;;;;;;5922605;40;20045;-65
2021/04/22 08:08:26;;;;;;;13.75;3.20;;;9.40;69.80;;;;;;5924746;40;20089;-66
2021/04/22 08:12:29;;;;;;;13.85;3.80;;;9.50;68.70;;;;;;5915284;40;20045;-66
2021/04/22 08:16:36;;;;;;;12.95;3.08;;;9.40;69.10;;;;;;5926749;40;20045;-66
2021/04/22 08:20:41;;;;;;;11.88;3.05;;;9.50;69.00;;;;;;5916235;40;20150;-65
2021/04/22 08:24:45;;;;;;;10.77;2.33;;;9.60;68.20;;;;;;5913058;40;20056;-66
2021/04/22 08:28:54;;;;;;;7.55;2.70;;;9.60;68.00;;;;;;5906956;40;20067;-66
2021/04/22 08:33:01;;;;;;;8.18;2.72;;;9.90;66.50;;;;;;5917311;40;20056;-66
2021/04/22 08:37:08;;;;;;;10.13;2.50;;;10.30;65.70;;;;;;5921953;40;20095;-66
2021/04/22 08:41:18;;;;;;;11.50;2.58;;;10.60;65.20;;;;;;5928865;40;20150;-66
2021/04/22 08:45:23;;;;;;;14.32;2.92;;;10.80;65.10;;;;;;5923130;40;20086;-66
2021/04/22 08:49:30;;;;;;;3.63;0.82;;;11.10;65.00;;;;;;5912159;40;20052;-67
2021/04/22 08:53:36;;;;;;;8.80;2.42;;;11.50;60.50;;;;;;5914975;40;20421;-66
2021/04/22 08:57:40;;;;;;;8.82;2.55;;;11.50;62.50;;;;;;5918344;40;20592;-67
2021/04/22 09:01:47;;;;;;;11.23;3.00;;;11.60;64.00;;;;;;5923625;40;20384;-65
2021/04/22 09:05:52;;;;;;;12.80;2.65;;;11.40;64.40;;;;;;5915334;40;20077;-66
2021/04/22 09:09:58;;;;;;;8.48;2.50;;;11.20;64.80;;;;;;5926865;40;20067;-67
2021/04/22 09:14:17;;;;;;;14.65;2.33;;;11.00;65.40;;;;;;5924813;40;20048;-67
2021/04/22 09:18:21;;;;;;;15.13;2.05;;;11.00;65.60;;;;;;5925480;40;20678;-65
2021/04/22 09:22:39;;;;;;;12.77;3.00;;;11.20;66.30;;;;;;5929604;40;20052;-67
2021/04/22 09:26:56;;;;;;;11.13;2.58;;;11.20;65.00;;;;;;5930526;40;20343;-66
2021/04/22 09:31:01;;;;;;;14.90;2.75;;;11.00;65.90;;;;;;5925447;40;20085;-66
2021/04/22 09:35:13;;;;;;;16.73;3.20;;;10.90;66.00;;;;;;5916952;40;20049;-66
2021/04/22 09:39:23;;;;;;;12.35;3.55;;;10.70;66.60;;;;;;5918358;40;20048;-66
2021/04/22 09:43:28;;;;;;;14.65;3.40;;;10.50;67.20;;;;;;5929509;40;20052;-66
2021/04/22 09:47:34;;;;;;;20.83;4.05;;;10.40;67.80;;;;;;5929720;40;20052;-65
2021/04/22 09:51:40;;;;;;;19.95;4.38;;;10.50;68.30;;;;;;5928496;40;20405;-66
2021/04/22 09:55:49;;;;;;;12.13;3.47;;;10.60;68.50;;;;;;5929872;40;20427;-65
2021/04/22 09:59:54;;;;;;;15.18;4.07;;;10.70;68.00;;;;;;5930855;40;20137;-66
2021/04/22 10:03:58;;;;;;;15.63;3.45;;;10.70;68.00;;;;;;5927410;40;20056;-66
2021/04/22 10:08:13;;;;;;;11.05;2.42;;;10.80;67.90;;;;;;5909653;40;20421;-66
2021/04/22 10:12:24;;;;;;;18.50;3.78;;;10.90;67.50;;;;;;5931734;40;20138;-65
2021/04/22 10:16:32;;;;;;;15.52;3.30;;;11.60;67.20;;;;;;5928100;40;20064;-67
2021/04/22 10:20:42;;;;;;;14.50;3.33;;;10.80;67.10;;;;;;5911848;40;20055;-67
2021/04/22 10:25:00;;;;;;;10.50;2.85;;;10.60;67.40;;;;;;5919934;40;20360;-67
2021/04/22 10:29:07;;;;;;;14.90;3.25;;;10.40;67.90;;;;;;5926057;40;20067;-66
2021/04/22 10:33:15;;;;;;;12.75;2.70;;;10.30;68.20;;;;;;5928927;40;20392;-66
2021/04/22 10:37:23;;;;;;;13.98;4.43;;;10.20;68.60;;;;;;5928037;40;20052;-65
2021/04/22 10:41:36;;;;;;;12.43;3.58;;;10.20;68.80;;;;;;5929222;40;20079;-66
2021/04/22 10:45:41;;;;;;;11.23;2.78;;;10.30;68.20;;;;;;5927165;40;20430;-66
2021/04/22 10:49:46;;;;;;;14.65;3.67;;;10.40;68.20;;;;;;5925390;40;20387;-66
2021/04/22 10:53:54;;;;;;;21.38;4.60;;;10.50;68.30;;;;;;5926054;40;20048;-66
2021/04/22 10:58:28;;;;;;;15.68;4.03;;;10.50;68.50;;;;;;5919619;40;20164;-67
2021/04/22 11:02:47;;;;;;;16.55;4.10;;;10.50;69.60;;;;;;5927453;40;20139;-66
2021/04/22 11:06:51;;;;;;;19.60;4.18;;;10.50;69.40;;;;;;5925585;40;20361;-66
2021/04/22 11:10:56;;;;;;;18.83;4.22;;;10.50;69.30;;;;;;5926404;40;20471;-66
2021/04/22 11:15:05;;;;;;;22.15;4.32;;;10.40;69.70;;;;;;5916928;40;20043;-67
2021/04/22 11:19:30;;;;;;;14.63;4.25;;;10.30;69.70;;;;;;5918531;40;20061;-65
2021/04/22 11:23:40;;;;;;;13.82;4.07;;;10.20;70.40;;;;;;5911676;40;20428;-66
2021/04/22 11:27:49;;;;;;;15.00;4.03;;;10.30;70.40;;;;;;5924802;40;20048;-66
2021/04/22 11:31:56;;;;;;;21.52;4.82;;;10.30;69.80;;;;;;5916345;40;20107;-66
2021/04/22 11:36:10;;;;;;;20.92;4.60;;;10.40;70.30;;;;;;5924966;40;20498;-68
2021/04/22 11:40:35;;;;;;;21.30;5.82;;;10.30;71.00;;;;;;5930012;40;20303;-66
2021/04/22 11:44:43;;;;;;;17.65;4.38;;;10.60;70.50;;;;;;5919914;40;20106;-66
2021/04/22 11:48:47;;;;;;;17.02;4.78;;;10.90;69.70;;;;;;5926905;40;20072;-67
2021/04/22 11:52:59;;;;;;;23.75;4.82;;;10.90;69.70;;;;;;5919811;40;20285;-67
2021/04/22 11:57:05;;;;;;;16.15;4.15;;;10.90;70.20;;;;;;5927834;40;20631;-67
2021/04/22 12:01:10;;;;;;;18.83;5.18;;;11.00;70.00;;;;;;5926528;40;20056;-66
2021/04/22 12:05:18;;;;;;;14.63;4.22;;;11.00;70.00;;;;;;5923815;40;20126;-67
2021/04/22 12:09:32;;;;;;;18.65;5.28;;;10.30;69.70;;;;;;5916280;40;20056;-67
2021/04/22 12:13:39;;;;;;;14.70;3.60;;;11.10;69.50;;;;;;5913869;40;20044;-66
2021/04/22 12:17:47;;;;;;;16.55;4.22;;;11.10;68.20;;;;;;5915368;40;20112;-67
2021/04/22 12:21:55;;;;;;;18.58;4.45;;;11.00;68.80;;;;;;5917295;40;20146;-65
2021/04/22 12:26:25;;;;;;;19.83;4.90;;;10.90;68.90;;;;;;5925110;40;20424;-66
2021/04/22 12:30:41;;;;;;;22.00;5.00;;;11.00;67.90;;;;;;5920439;40;20727;-67
2021/04/22 12:34:47;;;;;;;18.15;5.07;;;11.10;68.60;;;;;;5909393;40;20386;-65
2021/04/22 12:38:52;;;;;;;22.00;5.70;;;11.30;68.60;;;;;;5925052;40;20053;-66
2021/04/22 12:43:02;;;;;;;24.88;4.65;;;11.40;68.20;;;;;;5917705;40;20245;-66
2021/04/22 12:47:10;;;;;;;19.60;3.92;;;11.50;67.60;;;;;;5926612;40;20060;-65
2021/04/22 12:51:14;;;;;;;19.95;4.43;;;11.50;67.30;;;;;;5921034;40;20064;-66
2021/04/22 12:55:19;;;;;;;13.95;4.25;;;11.40;67.10;;;;;;5927715;40;20064;-66
2021/04/22 12:59:27;;;;;;;12.10;3.97;;;11.50;66.90;;;;;;5919070;40;20057;-67
2021/04/22 13:03:34;;;;;;;13.95;3.95;;;11.50;67.80;;;;;;5926908;40;20133;-67
2021/04/22 13:07:46;;;;;;;13.48;4.38;;;11.60;67.90;;;;;;5926363;40;20045;-67
2021/04/22 13:11:50;;;;;;;17.60;3.83;;;11.70;67.80;;;;;;5922101;40;20325;-66
2021/04/22 13:15:55;;;;;;;18.00;3.95;;;11.70;67.40;;;;;;5917948;40;20051;-66
2021/04/22 13:19:59;;;;;;;18.25;4.70;;;11.70;66.90;;;;;;5924276;40;20059;-66
2021/04/22 13:24:19;;;;;;;19.38;4.80;;;12.00;67.10;;;;;;5915953;40;20058;-66
2021/04/22 13:28:24;;;;;;;11.68;3.88;;;12.00;66.60;;;;;;5923379;40;20056;-67
2021/04/22 13:32:36;;;;;;;27.15;5.22;;;12.00;66.80;;;;;;5924392;40;20067;-67
2021/04/22 13:36:53;;;;;;;16.45;4.60;;;11.80;67.10;;;;;;5916182;40;20056;-66
2021/04/22 13:41:09;;;;;;;20.17;4.32;;;11.60;67.50;;;;;;5926262;40;20063;-66
2021/04/22 13:45:15;;;;;;;18.92;4.72;;;11.40;67.60;;;;;;5915749;40;20068;-66
2021/04/22 13:49:25;;;;;;;21.77;5.80;;;11.30;68.20;;;;;;5926073;40;20496;-66
2021/04/22 13:53:28;;;;;;;14.65;4.90;;;11.30;68.40;;;;;;5924423;40;20075;-65
2021/04/22 13:57:42;;;;;;;17.65;4.75;;;11.20;68.40;;;;;;5922337;40;20048;-67
2021/04/22 14:01:46;;;;;;;20.50;5.00;;;11.30;68.70;;;;;;5922098;40;20436;-67
2021/04/22 14:05:52;;;;;;;20.85;4.78;;;11.30;68.40;;;;;;5913382;40;20056;-69
2021/04/22 14:10:00;;;;;;;19.13;5.65;;;11.20;68.90;;;;;;5920514;40;20064;-69
2021/04/22 14:14:57;;;;;;;23.90;4.72;;;11.30;68.80;;;;;;5923928;40;20404;-68
2021/04/22 14:20:43;;;;;;;14.50;4.18;;;11.30;68.50;;;;;;5923607;40;20130;-69
2021/04/22 14:26:25;;;;;;;18.50;4.72;;;11.30;68.00;;;;;;5915088;40;20063;-67
2021/04/22 14:32:07;;;;;;;16.53;4.33;;;11.30;67.50;;;;;;5918522;40;20047;-68
2021/04/22 14:37:48;;;;;;;20.30;4.63;;;11.10;67.70;;;;;;5910276;40;20052;-68
2021/04/22 14:42:39;;;;;;;11.20;3.15;;;11.10;67.80;;;;;;5920151;40;20056;-67
2021/04/22 14:46:46;;;;;;;14.02;3.78;;;11.20;67.50;;;;;;5910123;40;20177;-69
2021/04/22 14:50:51;;;;;;;12.27;3.08;;;11.00;67.10;;;;;;5920738;40;20055;-68
2021/04/22 14:54:55;;;;;;;15.40;4.22;;;10.90;67.60;;;;;;5908905;40;23632;-68
2021/04/22 14:59:05;;;;;;;17.85;3.47;;;10.80;68.20;;;;;;5923385;40;20056;-67
2021/04/22 15:03:09;;;;;;;17.80;3.88;;;10.90;68.00;;;;;;5919457;40;20159;-68
2021/04/22 15:07:28;;;;;;;13.75;3.42;;;10.90;67.90;;;;;;5923924;40;20056;-68
2021/04/22 15:11:33;;;;;;;11.68;3.58;;;10.90;68.20;;;;;;5919930;40;20057;-69
2021/04/22 15:15:37;;;;;;;17.02;4.28;;;10.80;68.40;;;;;;5922223;40;20088;-69
2021/04/22 15:19:44;;;;;;;12.10;3.45;;;10.80;68.70;;;;;;5922983;40;20060;-68
2021/04/22 15:23:51;;;;;;;18.17;3.45;;;10.80;68.70;;;;;;5923271;40;20438;-68
2021/04/22 15:27:58;;;;;;;16.60;3.80;;;10.60;68.30;;;;;;5916433;40;20117;-68
2021/04/22 15:32:03;;;;;;;15.23;2.85;;;10.60;69.10;;;;;;5915832;40;20490;-70
2021/04/22 15:36:07;;;;;;;9.13;2.83;;;10.60;68.60;;;;;;5920427;40;20062;-70
2021/04/22 15:40:15;;;;;;;18.27;3.80;;;10.50;69.00;;;;;;5923761;40;20384;-69
2021/04/22 15:44:21;;;;;;;19.63;3.72;;;10.40;69.90;;;;;;5925654;40;20043;-68
2021/04/22 15:48:26;;;;;;;17.77;3.75;;;10.40;69.60;;;;;;5924636;40;20111;-69
2021/04/22 15:52:30;;;;;;;23.13;4.63;;;10.40;69.40;;;;;;5902380;40;20071;-69
2021/04/22 15:56:37;;;;;;;14.15;3.08;;;10.40;69.50;;;;;;5919477;40;20134;-69
2021/04/22 16:00:43;;;;;;;14.98;3.33;;;10.30;69.70;;;;;;5922087;40;20442;-68
2021/04/22 16:04:47;;;;;;;16.65;3.42;;;10.30;69.50;;;;;;5918987;40;20059;-69
2021/04/22 16:08:52;;;;;;;16.15;3.85;;;10.30;69.50;;;;;;5922493;40;20428;-69
2021/04/22 16:12:57;;;;;;;8.82;2.53;;;10.20;69.70;;;;;;5926421;40;20245;-69
2021/04/22 16:17:04;;;;;;;17.77;3.85;;;10.20;69.30;;;;;;5920264;40;20059;-68
2021/04/22 16:21:08;;;;;;;13.10;3.80;;;10.10;69.50;;;;;;5927499;40;20060;-68
2021/04/22 16:25:14;;;;;;;16.33;3.72;;;10.00;70.20;;;;;;5925748;40;20354;-68
2021/04/22 19:44:58;;;;;;;17.95;3.60;;;7.30;76.00;;;;;;5913783;40;20063;-69
2021/04/22 19:49:36;;;;;;;16.25;4.03;;;6.70;75.00;;;;;;5910989;40;20161;-70
2021/04/22 19:53:59;;;;;;;17.67;4.20;;;7.20;75.50;;;;;;5921771;40;20091;-69
2021/04/22 19:58:30;;;;;;;17.38;3.85;;;7.20;75.60;;;;;;5928162;40;20064;-69
2021/04/22 20:02:43;;;;;;;18.23;4.15;;;7.20;75.20;;;;;;5928499;40;20053;-70
2021/04/22 20:06:48;;;;;;;22.30;3.90;;;7.20;75.50;;;;;;5914985;40;20056;-69
2021/04/22 20:10:55;;;;;;;19.73;3.83;;;7.10;75.00;;;;;;5923544;40;20041;-69
2021/04/22 20:14:57;;;;;;;13.00;5.15;;;7.10;75.60;;;;;;5922736;40;20053;-69
2021/04/22 20:19:04;;;;;;;26.08;4.47;;;7.10;77.80;;;;;;5906619;40;20239;-69
2021/04/22 20:23:08;;;;;;;14.05;3.85;;;7.00;75.60;;;;;;5920473;40;20051;-70
2021/04/22 20:27:12;;;;;;;14.15;4.10;;;7.00;77.10;;;;;;5920350;40;20049;-69
2021/04/22 20:31:19;;;;;;;19.45;4.40;;;6.90;76.90;;;;;;5911465;40;20137;-69
2021/04/22 20:35:27;;;;;;;14.98;4.22;;;6.90;76.00;;;;;;5920516;40;20053;-69
2021/04/22 20:39:32;;;;;;;18.35;4.38;;;6.90;76.00;;;;;;5920872;40;20049;-69
2021/04/22 20:43:38;;;;;;;19.02;4.30;;;6.90;76.10;;;;;;5928186;40;20064;-68
2021/04/22 20:47:47;;;;;;;17.55;4.20;;;6.90;77.70;;;;;;5917496;40;20103;-69
2021/04/22 20:52:26;;;;;;;17.02;4.53;;;6.90;77.20;;;;;;5916551;40;20043;-69
2021/04/22 20:56:30;;;;;;;21.67;3.88;;;6.90;76.50;;;;;;5918877;40;20742;-70
2021/04/22 21:00:34;;;;;;;17.75;4.25;;;6.80;76.00;;;;;;5920334;40;20084;-69
2021/04/22 21:04:39;;;;;;;17.50;3.63;;;6.80;76.50;;;;;;5913353;40;20108;-70
2021/04/22 21:08:43;;;;;;;17.30;3.88;;;6.80;77.10;;;;;;5902291;40;20041;-70
2021/04/22 21:12:51;;;;;;;19.02;5.78;;;6.80;77.00;;;;;;5922331;40;20069;-69
2021/04/22 21:16:58;;;;;;;17.85;4.20;;;6.80;77.80;;;;;;5911157;40;20066;-69
2021/04/22 21:21:02;;;;;;;14.93;3.78;;;6.70;76.40;;;;;;5916424;40;20157;-69
2021/04/22 21:25:10;;;;;;;14.13;4.03;;;6.70;76.00;;;;;;5913678;40;20150;-69
2021/04/22 21:29:18;;;;;;;16.30;4.07;;;6.70;76.30;;;;;;5917010;40;20056;-70
2021/04/22 21:33:23;;;;;;;15.95;4.35;;;6.70;76.00;;;;;;5920874;40;20336;-70
2021/04/22 21:37:27;;;;;;;17.13;4.00;;;6.70;76.90;;;;;;5905412;40;20095;-70
2021/04/22 21:41:36;;;;;;;16.38;3.42;;;6.70;76.20;;;;;;5918323;40;20033;-70
2021/04/22 21:45:44;;;;;;;17.80;3.75;;;6.70;76.40;;;;;;5916733;40;20998;-71
2021/04/22 21:49:52;;;;;;;17.52;4.47;;;6.70;76.00;;;;;;5913834;40;20713;-71
2021/04/22 21:54:00;;;;;;;19.38;3.88;;;6.70;76.40;;;;;;5917382;40;20149;-70
2021/04/22 21:58:05;;;;;;;16.02;3.35;;;6.60;76.40;;;;;;5906201;40;20897;-70
2021/04/22 22:02:12;;;;;;;20.60;3.85;;;6.60;78.10;;;;;;5908506;40;20057;-70
2021/04/22 22:06:16;;;;;;;15.32;3.50;;;6.60;76.70;;;;;;5912125;40;20118;-70
2021/04/22 22:10:21;;;;;;;16.65;3.78;;;7.10;77.30;;;;;;5920458;40;20049;-70
2021/04/22 22:14:26;;;;;;;16.42;2.97;;;6.60;77.20;;;;;;5911924;40;20048;-70
2021/04/22 22:18:30;;;;;;;14.30;3.67;;;6.60;76.50;;;;;;5908280;40;20056;-70
2021/04/22 22:22:35;;;;;;;15.45;2.90;;;6.60;77.30;;;;;;5926963;40;20137;-70
2021/04/22 22:26:43;;;;;;;12.93;2.70;;;6.60;75.90;;;;;;5919340;40;20091;-70
2021/04/22 22:30:48;;;;;;;11.07;3.35;;;7.00;77.40;;;;;;5918551;40;20122;-69
2021/04/22 22:34:51;;;;;;;24.08;4.28;;;6.50;77.20;;;;;;5915358;40;20144;-69
2021/04/22 22:38:55;;;;;;;15.18;2.50;;;6.50;76.30;;;;;;5916297;40;20044;-68
2021/04/22 22:43:01;;;;;;;13.15;2.40;;;6.50;75.60;;;;;;5917992;40;20328;-69
2021/04/22 22:47:06;;;;;;;13.52;2.70;;;6.40;75.40;;;;;;5930064;40;20036;-68
2021/04/22 22:51:12;;;;;;;17.42;2.50;;;6.40;75.10;;;;;;5919703;40;20439;-68
2021/04/22 22:55:20;;;;;;;17.20;2.92;;;6.30;75.70;;;;;;5926827;40;20056;-68
2021/04/22 22:59:24;;;;;;;12.32;2.58;;;6.30;75.60;;;;;;5928279;40;20097;-69
2021/04/22 23:03:29;;;;;;;19.98;3.78;;;6.20;75.90;;;;;;5921714;40;20118;-69
2021/04/22 23:07:35;;;;;;;16.17;3.28;;;6.20;75.30;;;;;;5927163;40;20059;-69
2021/04/22 23:11:42;;;;;;;14.15;2.35;;;6.10;75.90;;;;;;5914922;40;20586;-69
2021/04/22 23:15:47;;;;;;;14.70;2.03;;;6.10;76.60;;;;;;5908837;40;20056;-70
2021/04/22 23:19:59;;;;;;;14.77;2.40;;;6.10;75.30;;;;;;5909737;40;20044;-69
2021/04/22 23:24:07;;;;;;;14.95;2.72;;;6.10;75.20;;;;;;5915611;40;20092;-69
2021/04/22 23:28:11;;;;;;;17.10;2.30;;;6.10;75.80;;;;;;5915640;40;20349;-69
2021/04/22 23:32:15;;;;;;;18.20;2.30;;;6.10;75.40;;;;;;5915822;40;20487;-70
2021/04/22 23:36:22;;;;;;;12.93;2.17;;;6.00;75.00;;;;;;5908433;40;20402;-69
2021/04/22 23:40:29;;;;;;;13.05;2.58;;;6.00;76.00;;;;;;5922266;40;20053;-68
2021/04/22 23:44:44;;;;;;;17.88;2.55;;;6.00;75.30;;;;;;5920551;40;20405;-68
2021/04/22 23:48:48;;;;;;;11.30;2.72;;;6.00;75.00;;;;;;5915035;40;20421;-68
2021/04/22 23:52:53;;;;;;;17.58;2.42;;;5.90;74.80;;;;;;5913014;40;20153;-68
2021/04/22 23:57:00;;;;;;;15.82;2.25;;;5.90;75.00;;;;;;5913585;40;20044;-68
